sensor_id;sensor_type;location;lat;lon;timestamp;P1;durP1;ratioP1;P2;durP2;ratioP2
4023;SDS011;2026;51.002;13.668;2023-02-20T00:00:28;8.10;;;5.43;;
4023;SDS011;2026;51.002;13.668;2023-02-20T00:05:34;9.60;;;5.60;;
4023;SDS011;2026;51.002;13.668;2023-02-20T00:10:37;8.93;;;5.30;;
4023;SDS011;2026;51.002;13.668;2023-02-20T00:15:40;11.03;;;5.70;;
4023;SDS011;2026;51.002;13.668;2023-02-20T00:20:44;9.47;;;6.10;;
4023;SDS011;2026;51.002;13.668;2023-02-20T00:25:47;7.87;;;5.37;;
4023;SDS011;2026;51.002;13.668;2023-02-20T00:30:50;8.97;;;5.90;;
4023;SDS011;2026;51.002;13.668;2023-02-20T00:35:55;9.07;;;4.90;;
4023;SDS011;2026;51.002;13.668;2023-02-20T00:40:58;5.63;;;4.10;;
4023;SDS011;2026;51.002;13.668;2023-02-20T00:46:01;6.67;;;4.03;;
4023;SDS011;2026;51.002;13.668;2023-02-20T00:51:05;6.50;;;4.50;;
4023;SDS011;2026;51.002;13.668;2023-02-20T00:56:08;4.77;;;4.17;;
4023;SDS011;2026;51.002;13.668;2023-02-20T01:01:13;6.67;;;4.00;;
4023;SDS011;2026;51.002;13.668;2023-02-20T01:06:18;5.63;;;4.43;;
4023;SDS011;2026;51.002;13.668;2023-02-20T01:11:21;8.80;;;5.10;;
4023;SDS011;2026;51.002;13.668;2023-02-20T01:16:26;6.90;;;4.73;;
4023;SDS011;2026;51.002;13.668;2023-02-20T01:21:30;5.63;;;4.37;;
4023;SDS011;2026;51.002;13.668;2023-02-20T01:26:33;6.70;;;4.10;;
4023;SDS011;2026;51.002;13.668;2023-02-20T01:31:36;6.13;;;4.10;;
4023;SDS011;2026;51.002;13.668;2023-02-20T01:36:47;7.50;;;4.97;;
4023;SDS011;2026;51.002;13.668;2023-02-20T01:41:52;7.37;;;5.10;;
4023;SDS011;2026;51.002;13.668;2023-02-20T01:46:59;10.23;;;4.73;;
4023;SDS011;2026;51.002;13.668;2023-02-20T01:52:10;6.87;;;4.87;;
4023;SDS011;2026;51.002;13.668;2023-02-20T01:57:18;12.93;;;6.67;;
4023;SDS011;2026;51.002;13.668;2023-02-20T02:02:23;7.67;;;5.53;;
4023;SDS011;2026;51.002;13.668;2023-02-20T02:07:31;7.53;;;5.60;;
4023;SDS011;2026;51.002;13.668;2023-02-20T02:12:34;6.60;;;4.67;;
4023;SDS011;2026;51.002;13.668;2023-02-20T02:17:46;7.70;;;5.63;;
4023;SDS011;2026;51.002;13.668;2023-02-20T02:28:52;7.50;;;5.10;;
4023;SDS011;2026;51.002;13.668;2023-02-20T02:39:56;10.20;;;5.07;;
4023;SDS011;2026;51.002;13.668;2023-02-20T02:45:05;8.43;;;5.07;;
4023;SDS011;2026;51.002;13.668;2023-02-20T02:50:14;8.27;;;5.07;;
4023;SDS011;2026;51.002;13.668;2023-02-20T02:55:23;6.50;;;4.30;;
4023;SDS011;2026;51.002;13.668;2023-02-20T03:00:28;7.97;;;4.73;;
4023;SDS011;2026;51.002;13.668;2023-02-20T03:05:36;7.53;;;4.90;;
4023;SDS011;2026;51.002;13.668;2023-02-20T03:10:49;7.50;;;4.77;;
4023;SDS011;2026;51.002;13.668;2023-02-20T03:15:57;7.13;;;4.70;;
4023;SDS011;2026;51.002;13.668;2023-02-20T03:21:04;7.80;;;5.20;;
4023;SDS011;2026;51.002;13.668;2023-02-20T03:26:15;7.60;;;5.37;;
4023;SDS011;2026;51.002;13.668;2023-02-20T03:31:25;8.73;;;5.00;;
4023;SDS011;2026;51.002;13.668;2023-02-20T03:36:34;6.33;;;4.37;;
4023;SDS011;2026;51.002;13.668;2023-02-20T03:41:59;8.20;;;4.53;;
4023;SDS011;2026;51.002;13.668;2023-02-20T03:47:27;7.97;;;4.97;;
4023;SDS011;2026;51.002;13.668;2023-02-20T03:52:36;9.10;;;5.17;;
4023;SDS011;2026;51.002;13.668;2023-02-20T03:57:43;5.87;;;4.30;;
4023;SDS011;2026;51.002;13.668;2023-02-20T04:02:49;10.00;;;4.80;;
4023;SDS011;2026;51.002;13.668;2023-02-20T04:08:00;6.50;;;4.63;;
4023;SDS011;2026;51.002;13.668;2023-02-20T04:13:10;7.33;;;4.80;;
4023;SDS011;2026;51.002;13.668;2023-02-20T04:18:19;8.10;;;4.57;;
4023;SDS011;2026;51.002;13.668;2023-02-20T04:23:24;7.43;;;4.90;;
4023;SDS011;2026;51.002;13.668;2023-02-20T04:28:29;8.70;;;5.37;;
4023;SDS011;2026;51.002;13.668;2023-02-20T04:33:38;7.77;;;5.70;;
4023;SDS011;2026;51.002;13.668;2023-02-20T04:38:47;7.30;;;5.57;;
4023;SDS011;2026;51.002;13.668;2023-02-20T04:43:54;11.23;;;6.60;;
4023;SDS011;2026;51.002;13.668;2023-02-20T04:49:11;10.70;;;6.53;;
4023;SDS011;2026;51.002;13.668;2023-02-20T04:54:16;11.43;;;7.00;;
4023;SDS011;2026;51.002;13.668;2023-02-20T04:59:21;10.50;;;6.70;;
4023;SDS011;2026;51.002;13.668;2023-02-20T05:04:25;11.83;;;6.73;;
4023;SDS011;2026;51.002;13.668;2023-02-20T05:09:29;11.80;;;6.97;;
4023;SDS011;2026;51.002;13.668;2023-02-20T05:14:33;11.30;;;6.70;;
4023;SDS011;2026;51.002;13.668;2023-02-20T05:19:36;10.20;;;6.27;;
4023;SDS011;2026;51.002;13.668;2023-02-20T05:24:41;11.90;;;7.00;;
4023;SDS011;2026;51.002;13.668;2023-02-20T05:29:46;11.33;;;7.30;;
4023;SDS011;2026;51.002;13.668;2023-02-20T05:34:50;12.90;;;7.73;;
4023;SDS011;2026;51.002;13.668;2023-02-20T05:39:53;12.33;;;7.23;;
4023;SDS011;2026;51.002;13.668;2023-02-20T05:44:58;9.23;;;5.70;;
4023;SDS011;2026;51.002;13.668;2023-02-20T05:50:02;10.73;;;6.40;;
4023;SDS011;2026;51.002;13.668;2023-02-20T05:55:06;9.63;;;5.20;;
4023;SDS011;2026;51.002;13.668;2023-02-20T06:00:11;8.77;;;5.40;;
4023;SDS011;2026;51.002;13.668;2023-02-20T06:05:15;9.50;;;5.60;;
4023;SDS011;2026;51.002;13.668;2023-02-20T06:10:18;11.63;;;5.70;;
4023;SDS011;2026;51.002;13.668;2023-02-20T06:15:23;13.30;;;6.90;;
4023;SDS011;2026;51.002;13.668;2023-02-20T06:20:26;10.30;;;5.40;;
4023;SDS011;2026;51.002;13.668;2023-02-20T06:25:29;9.20;;;5.47;;
4023;SDS011;2026;51.002;13.668;2023-02-20T06:30:33;8.20;;;4.50;;
4023;SDS011;2026;51.002;13.668;2023-02-20T06:35:36;9.30;;;5.40;;
4023;SDS011;2026;51.002;13.668;2023-02-20T06:40:39;8.50;;;4.70;;
4023;SDS011;2026;51.002;13.668;2023-02-20T06:45:43;9.57;;;5.93;;
4023;SDS011;2026;51.002;13.668;2023-02-20T06:50:47;9.70;;;4.40;;
4023;SDS011;2026;51.002;13.668;2023-02-20T06:55:49;8.60;;;5.10;;
4023;SDS011;2026;51.002;13.668;2023-02-20T07:00:54;8.63;;;4.70;;
4023;SDS011;2026;51.002;13.668;2023-02-20T07:05:57;10.13;;;5.23;;
4023;SDS011;2026;51.002;13.668;2023-02-20T07:11:00;6.87;;;4.47;;
4023;SDS011;2026;51.002;13.668;2023-02-20T07:16:04;7.37;;;4.97;;
4023;SDS011;2026;51.002;13.668;2023-02-20T07:21:08;7.87;;;4.37;;
4023;SDS011;2026;51.002;13.668;2023-02-20T07:26:16;7.27;;;3.80;;
4023;SDS011;2026;51.002;13.668;2023-02-20T07:31:20;6.00;;;4.10;;
4023;SDS011;2026;51.002;13.668;2023-02-20T07:36:23;7.10;;;4.33;;
4023;SDS011;2026;51.002;13.668;2023-02-20T07:41:27;7.00;;;4.27;;
4023;SDS011;2026;51.002;13.668;2023-02-20T07:46:34;5.20;;;3.70;;
4023;SDS011;2026;51.002;13.668;2023-02-20T07:51:37;8.37;;;3.87;;
4023;SDS011;2026;51.002;13.668;2023-02-20T07:56:40;6.67;;;3.70;;
4023;SDS011;2026;51.002;13.668;2023-02-20T08:01:45;7.07;;;3.63;;
4023;SDS011;2026;51.002;13.668;2023-02-20T08:06:48;5.90;;;4.03;;
4023;SDS011;2026;51.002;13.668;2023-02-20T08:11:51;6.00;;;4.17;;
4023;SDS011;2026;51.002;13.668;2023-02-20T08:16:55;6.47;;;3.90;;
4023;SDS011;2026;51.002;13.668;2023-02-20T08:21:58;6.00;;;3.80;;
4023;SDS011;2026;51.002;13.668;2023-02-20T08:27:02;6.40;;;4.23;;
4023;SDS011;2026;51.002;13.668;2023-02-20T08:32:06;7.23;;;4.07;;
4023;SDS011;2026;51.002;13.668;2023-02-20T08:37:09;7.67;;;5.00;;
4023;SDS011;2026;51.002;13.668;2023-02-20T08:42:13;5.63;;;3.83;;
4023;SDS011;2026;51.002;13.668;2023-02-20T08:47:19;7.70;;;4.53;;
4023;SDS011;2026;51.002;13.668;2023-02-20T08:52:23;5.40;;;4.00;;
4023;SDS011;2026;51.002;13.668;2023-02-20T08:57:27;5.47;;;3.63;;
4023;SDS011;2026;51.002;13.668;2023-02-20T09:02:31;5.10;;;3.73;;
4023;SDS011;2026;51.002;13.668;2023-02-20T09:07:34;5.17;;;3.40;;
4023;SDS011;2026;51.002;13.668;2023-02-20T09:12:37;4.67;;;3.60;;
4023;SDS011;2026;51.002;13.668;2023-02-20T09:17:43;6.13;;;3.00;;
4023;SDS011;2026;51.002;13.668;2023-02-20T09:22:49;4.33;;;3.00;;
4023;SDS011;2026;51.002;13.668;2023-02-20T09:27:53;3.43;;;2.77;;
4023;SDS011;2026;51.002;13.668;2023-02-20T09:32:57;5.57;;;3.30;;
4023;SDS011;2026;51.002;13.668;2023-02-20T09:38:00;5.30;;;2.80;;
4023;SDS011;2026;51.002;13.668;2023-02-20T09:43:13;3.40;;;2.40;;
4023;SDS011;2026;51.002;13.668;2023-02-20T09:48:32;3.17;;;2.80;;
4023;SDS011;2026;51.002;13.668;2023-02-20T09:53:46;5.60;;;2.90;;
4023;SDS011;2026;51.002;13.668;2023-02-20T09:58:55;4.40;;;2.87;;
4023;SDS011;2026;51.002;13.668;2023-02-20T10:04:05;3.67;;;2.70;;
4023;SDS011;2026;51.002;13.668;2023-02-20T10:09:12;2.93;;;2.43;;
4023;SDS011;2026;51.002;13.668;2023-02-20T10:14:20;3.37;;;2.53;;
4023;SDS011;2026;51.002;13.668;2023-02-20T10:19:39;2.63;;;2.40;;
4023;SDS011;2026;51.002;13.668;2023-02-20T10:24:57;5.47;;;2.40;;
4023;SDS011;2026;51.002;13.668;2023-02-20T10:30:10;4.83;;;2.77;;
4023;SDS011;2026;51.002;13.668;2023-02-20T10:35:17;2.67;;;2.00;;
4023;SDS011;2026;51.002;13.668;2023-02-20T10:40:25;2.97;;;2.00;;
4023;SDS011;2026;51.002;13.668;2023-02-20T10:45:37;2.20;;;2.00;;
4023;SDS011;2026;51.002;13.668;2023-02-20T10:50:49;2.13;;;1.83;;
4023;SDS011;2026;51.002;13.668;2023-02-20T10:55:59;2.33;;;2.10;;
4023;SDS011;2026;51.002;13.668;2023-02-20T11:01:11;2.60;;;2.00;;
4023;SDS011;2026;51.002;13.668;2023-02-20T11:06:19;3.20;;;2.13;;
4023;SDS011;2026;51.002;13.668;2023-02-20T11:11:26;6.50;;;2.17;;
4023;SDS011;2026;51.002;13.668;2023-02-20T11:16:34;4.77;;;2.10;;
4023;SDS011;2026;51.002;13.668;2023-02-20T11:21:46;3.77;;;2.17;;
4023;SDS011;2026;51.002;13.668;2023-02-20T11:26:53;3.47;;;1.67;;
4023;SDS011;2026;51.002;13.668;2023-02-20T11:32:13;8.03;;;2.90;;
4023;SDS011;2026;51.002;13.668;2023-02-20T11:37:24;3.77;;;1.90;;
4023;SDS011;2026;51.002;13.668;2023-02-20T11:42:31;2.97;;;2.07;;
4023;SDS011;2026;51.002;13.668;2023-02-20T11:47:35;3.53;;;2.00;;
4023;SDS011;2026;51.002;13.668;2023-02-20T11:52:45;4.23;;;1.83;;
4023;SDS011;2026;51.002;13.668;2023-02-20T11:57:57;4.10;;;2.00;;
4023;SDS011;2026;51.002;13.668;2023-02-20T12:03:03;4.63;;;2.13;;
4023;SDS011;2026;51.002;13.668;2023-02-20T12:08:30;1.60;;;1.40;;
4023;SDS011;2026;51.002;13.668;2023-02-20T12:13:38;1.80;;;1.47;;
4023;SDS011;2026;51.002;13.668;2023-02-20T12:18:44;3.50;;;1.77;;
4023;SDS011;2026;51.002;13.668;2023-02-20T12:24:00;1.63;;;1.37;;
4023;SDS011;2026;51.002;13.668;2023-02-20T12:29:16;7.70;;;2.00;;
4023;SDS011;2026;51.002;13.668;2023-02-20T12:34:40;2.27;;;1.80;;
4023;SDS011;2026;51.002;13.668;2023-02-20T12:39:59;2.20;;;1.60;;
4023;SDS011;2026;51.002;13.668;2023-02-20T12:45:13;2.10;;;1.70;;
4023;SDS011;2026;51.002;13.668;2023-02-20T12:50:28;1.50;;;1.20;;
4023;SDS011;2026;51.002;13.668;2023-02-20T12:55:44;1.83;;;1.40;;
4023;SDS011;2026;51.002;13.668;2023-02-20T13:00:53;2.10;;;1.20;;
4023;SDS011;2026;51.002;13.668;2023-02-20T13:06:01;1.90;;;1.67;;
4023;SDS011;2026;51.002;13.668;2023-02-20T13:11:09;1.70;;;1.40;;
4023;SDS011;2026;51.002;13.668;2023-02-20T13:16:18;2.00;;;1.50;;
4023;SDS011;2026;51.002;13.668;2023-02-20T13:21:27;2.00;;;1.47;;
4023;SDS011;2026;51.002;13.668;2023-02-20T13:26:48;3.90;;;1.70;;
4023;SDS011;2026;51.002;13.668;2023-02-20T13:31:54;1.63;;;1.20;;
4023;SDS011;2026;51.002;13.668;2023-02-20T13:36:58;1.40;;;1.30;;
4023;SDS011;2026;51.002;13.668;2023-02-20T13:42:03;3.17;;;1.53;;
4023;SDS011;2026;51.002;13.668;2023-02-20T13:47:27;3.77;;;1.60;;
4023;SDS011;2026;51.002;13.668;2023-02-20T13:52:39;3.50;;;1.77;;
4023;SDS011;2026;51.002;13.668;2023-02-20T13:57:45;1.57;;;1.27;;
4023;SDS011;2026;51.002;13.668;2023-02-20T14:02:50;4.67;;;1.50;;
4023;SDS011;2026;51.002;13.668;2023-02-20T14:07:53;1.80;;;1.60;;
4023;SDS011;2026;51.002;13.668;2023-02-20T14:12:59;3.00;;;1.50;;
4023;SDS011;2026;51.002;13.668;2023-02-20T14:18:04;4.30;;;1.50;;
4023;SDS011;2026;51.002;13.668;2023-02-20T14:23:19;4.90;;;1.87;;
4023;SDS011;2026;51.002;13.668;2023-02-20T14:28:27;1.63;;;1.53;;
4023;SDS011;2026;51.002;13.668;2023-02-20T14:33:32;3.33;;;1.70;;
4023;SDS011;2026;51.002;13.668;2023-02-20T14:38:45;3.87;;;1.50;;
4023;SDS011;2026;51.002;13.668;2023-02-20T14:43:59;2.60;;;1.83;;
4023;SDS011;2026;51.002;13.668;2023-02-20T14:49:05;4.50;;;3.20;;
4023;SDS011;2026;51.002;13.668;2023-02-20T14:54:16;2.60;;;1.83;;
4023;SDS011;2026;51.002;13.668;2023-02-20T14:59:26;2.67;;;2.20;;
4023;SDS011;2026;51.002;13.668;2023-02-20T15:04:31;4.30;;;2.37;;
4023;SDS011;2026;51.002;13.668;2023-02-20T15:09:34;2.80;;;1.77;;
4023;SDS011;2026;51.002;13.668;2023-02-20T15:14:41;3.63;;;1.93;;
4023;SDS011;2026;51.002;13.668;2023-02-20T15:19:45;2.23;;;1.80;;
4023;SDS011;2026;51.002;13.668;2023-02-20T15:24:48;2.23;;;1.77;;
4023;SDS011;2026;51.002;13.668;2023-02-20T15:35:17;2.77;;;2.10;;
4023;SDS011;2026;51.002;13.668;2023-02-20T15:40:24;3.60;;;2.03;;
4023;SDS011;2026;51.002;13.668;2023-02-20T15:45:30;1.80;;;1.70;;
4023;SDS011;2026;51.002;13.668;2023-02-20T15:50:33;3.70;;;2.00;;
4023;SDS011;2026;51.002;13.668;2023-02-20T15:55:36;2.20;;;2.00;;
4023;SDS011;2026;51.002;13.668;2023-02-20T16:00:40;3.47;;;2.50;;
4023;SDS011;2026;51.002;13.668;2023-02-20T16:05:43;3.60;;;1.70;;
4023;SDS011;2026;51.002;13.668;2023-02-20T16:10:46;2.60;;;2.00;;
4023;SDS011;2026;51.002;13.668;2023-02-20T16:15:52;3.07;;;2.10;;
4023;SDS011;2026;51.002;13.668;2023-02-20T16:20:55;6.63;;;2.50;;
4023;SDS011;2026;51.002;13.668;2023-02-20T16:25:59;4.30;;;2.20;;
4023;SDS011;2026;51.002;13.668;2023-02-20T16:31:04;2.80;;;2.20;;
4023;SDS011;2026;51.002;13.668;2023-02-20T16:36:07;4.73;;;2.80;;
4023;SDS011;2026;51.002;13.668;2023-02-20T16:41:20;5.03;;;2.27;;
4023;SDS011;2026;51.002;13.668;2023-02-20T16:46:24;7.53;;;3.13;;
4023;SDS011;2026;51.002;13.668;2023-02-20T16:51:39;6.83;;;2.67;;
4023;SDS011;2026;51.002;13.668;2023-02-20T16:56:49;8.83;;;2.87;;
4023;SDS011;2026;51.002;13.668;2023-02-20T17:01:53;4.23;;;2.60;;
4023;SDS011;2026;51.002;13.668;2023-02-20T17:06:56;5.17;;;2.93;;
4023;SDS011;2026;51.002;13.668;2023-02-20T17:11:59;4.03;;;2.70;;
4023;SDS011;2026;51.002;13.668;2023-02-20T17:17:04;5.20;;;3.43;;
4023;SDS011;2026;51.002;13.668;2023-02-20T17:22:08;4.90;;;2.73;;
4023;SDS011;2026;51.002;13.668;2023-02-20T17:27:13;3.90;;;2.60;;
4023;SDS011;2026;51.002;13.668;2023-02-20T17:32:18;3.43;;;2.13;;
4023;SDS011;2026;51.002;13.668;2023-02-20T17:37:22;3.30;;;2.33;;
4023;SDS011;2026;51.002;13.668;2023-02-20T17:42:26;2.40;;;2.17;;
4023;SDS011;2026;51.002;13.668;2023-02-20T17:47:32;5.60;;;2.20;;
4023;SDS011;2026;51.002;13.668;2023-02-20T17:52:35;18.03;;;11.23;;
4023;SDS011;2026;51.002;13.668;2023-02-20T17:57:38;7.80;;;3.40;;
4023;SDS011;2026;51.002;13.668;2023-02-20T18:02:43;5.03;;;2.80;;
4023;SDS011;2026;51.002;13.668;2023-02-20T18:07:46;4.30;;;3.00;;
4023;SDS011;2026;51.002;13.668;2023-02-20T18:12:52;4.80;;;2.97;;
4023;SDS011;2026;51.002;13.668;2023-02-20T18:18:06;3.07;;;2.13;;
4023;SDS011;2026;51.002;13.668;2023-02-20T18:23:09;4.40;;;2.50;;
4023;SDS011;2026;51.002;13.668;2023-02-20T18:28:13;5.37;;;3.83;;
4023;SDS011;2026;51.002;13.668;2023-02-20T18:33:17;6.37;;;4.23;;
4023;SDS011;2026;51.002;13.668;2023-02-20T18:38:20;9.23;;;5.70;;
4023;SDS011;2026;51.002;13.668;2023-02-20T18:43:23;10.40;;;6.57;;
4023;SDS011;2026;51.002;13.668;2023-02-20T18:48:29;15.20;;;8.30;;
4023;SDS011;2026;51.002;13.668;2023-02-20T18:53:32;20.00;;;8.00;;
4023;SDS011;2026;51.002;13.668;2023-02-20T18:58:35;12.67;;;6.87;;
4023;SDS011;2026;51.002;13.668;2023-02-20T19:03:39;8.00;;;5.90;;
4023;SDS011;2026;51.002;13.668;2023-02-20T19:08:42;9.23;;;6.87;;
4023;SDS011;2026;51.002;13.668;2023-02-20T19:13:45;7.20;;;4.40;;
4023;SDS011;2026;51.002;13.668;2023-02-20T19:18:50;7.60;;;3.93;;
4023;SDS011;2026;51.002;13.668;2023-02-20T19:23:53;6.33;;;4.27;;
4023;SDS011;2026;51.002;13.668;2023-02-20T19:28:56;10.80;;;4.93;;
4023;SDS011;2026;51.002;13.668;2023-02-20T19:34:05;7.90;;;4.70;;
4023;SDS011;2026;51.002;13.668;2023-02-20T19:39:09;6.10;;;4.00;;
4023;SDS011;2026;51.002;13.668;2023-02-20T19:44:13;5.97;;;3.90;;
4023;SDS011;2026;51.002;13.668;2023-02-20T19:49:18;4.13;;;3.70;;
4023;SDS011;2026;51.002;13.668;2023-02-20T19:54:23;8.50;;;5.40;;
4023;SDS011;2026;51.002;13.668;2023-02-20T19:59:28;7.27;;;4.20;;
4023;SDS011;2026;51.002;13.668;2023-02-20T20:04:33;6.07;;;3.87;;
4023;SDS011;2026;51.002;13.668;2023-02-20T20:09:36;6.00;;;4.50;;
4023;SDS011;2026;51.002;13.668;2023-02-20T20:14:39;4.57;;;3.77;;
4023;SDS011;2026;51.002;13.668;2023-02-20T20:19:43;4.70;;;3.50;;
4023;SDS011;2026;51.002;13.668;2023-02-20T20:24:58;5.57;;;3.93;;
4023;SDS011;2026;51.002;13.668;2023-02-20T20:30:02;6.50;;;3.80;;
4023;SDS011;2026;51.002;13.668;2023-02-20T20:35:07;4.80;;;3.80;;
4023;SDS011;2026;51.002;13.668;2023-02-20T20:40:10;6.00;;;3.90;;
4023;SDS011;2026;51.002;13.668;2023-02-20T20:45:15;7.37;;;3.70;;
4023;SDS011;2026;51.002;13.668;2023-02-20T20:50:21;4.80;;;3.60;;
4023;SDS011;2026;51.002;13.668;2023-02-20T20:55:28;5.63;;;3.70;;
4023;SDS011;2026;51.002;13.668;2023-02-20T21:00:32;5.33;;;4.00;;
4023;SDS011;2026;51.002;13.668;2023-02-20T21:05:37;5.27;;;3.40;;
4023;SDS011;2026;51.002;13.668;2023-02-20T21:10:40;7.87;;;4.17;;
4023;SDS011;2026;51.002;13.668;2023-02-20T21:15:43;7.23;;;4.27;;
4023;SDS011;2026;51.002;13.668;2023-02-20T21:20:47;8.40;;;4.40;;
4023;SDS011;2026;51.002;13.668;2023-02-20T21:25:50;10.67;;;4.70;;
4023;SDS011;2026;51.002;13.668;2023-02-20T21:30:53;7.10;;;4.10;;
4023;SDS011;2026;51.002;13.668;2023-02-20T21:35:58;10.80;;;4.70;;
4023;SDS011;2026;51.002;13.668;2023-02-20T21:41:02;6.87;;;4.50;;
4023;SDS011;2026;51.002;13.668;2023-02-20T21:46:05;6.43;;;4.23;;
4023;SDS011;2026;51.002;13.668;2023-02-20T21:51:12;7.53;;;4.53;;
4023;SDS011;2026;51.002;13.668;2023-02-20T21:56:15;7.40;;;4.03;;
4023;SDS011;2026;51.002;13.668;2023-02-20T22:01:18;7.10;;;4.27;;
4023;SDS011;2026;51.002;13.668;2023-02-20T22:06:21;5.43;;;3.53;;
4023;SDS011;2026;51.002;13.668;2023-02-20T22:11:23;7.60;;;4.77;;
4023;SDS011;2026;51.002;13.668;2023-02-20T22:16:43;6.67;;;4.70;;
4023;SDS011;2026;51.002;13.668;2023-02-20T22:22:05;7.53;;;4.33;;
4023;SDS011;2026;51.002;13.668;2023-02-20T22:27:25;8.30;;;4.83;;
4023;SDS011;2026;51.002;13.668;2023-02-20T22:32:46;6.47;;;4.73;;
4023;SDS011;2026;51.002;13.668;2023-02-20T22:38:07;6.40;;;4.60;;
4023;SDS011;2026;51.002;13.668;2023-02-20T22:43:28;7.10;;;4.40;;
4023;SDS011;2026;51.002;13.668;2023-02-20T22:48:48;7.33;;;3.90;;
4023;SDS011;2026;51.002;13.668;2023-02-20T22:54:10;4.93;;;3.30;;
4023;SDS011;2026;51.002;13.668;2023-02-20T22:59:31;4.33;;;3.60;;
4023;SDS011;2026;51.002;13.668;2023-02-20T23:04:51;5.00;;;4.10;;
4023;SDS011;2026;51.002;13.668;2023-02-20T23:10:14;7.10;;;4.70;;
4023;SDS011;2026;51.002;13.668;2023-02-20T23:15:35;7.77;;;5.03;;
4023;SDS011;2026;51.002;13.668;2023-02-20T23:20:56;7.03;;;4.33;;
4023;SDS011;2026;51.002;13.668;2023-02-20T23:26:18;5.10;;;3.43;;
4023;SDS011;2026;51.002;13.668;2023-02-20T23:31:39;5.23;;;3.77;;
4023;SDS011;2026;51.002;13.668;2023-02-20T23:37:00;5.00;;;3.40;;
4023;SDS011;2026;51.002;13.668;2023-02-20T23:42:22;5.67;;;3.43;;
4023;SDS011;2026;51.002;13.668;2023-02-20T23:47:42;6.40;;;3.70;;
4023;SDS011;2026;51.002;13.668;2023-02-20T23:53:03;6.60;;;4.60;;
4023;SDS011;2026;51.002;13.668;2023-02-20T23:58:24;6.87;;;4.70;;
